|
|
| Date/Time | Temp | RelHum | Wind | Gust | Dir | Rain | SolR | SVM2" | STmp2" | SVM4" | STmp4" | SVM8" | STmp8" | SVM20" | STmp20" | SVM40" | STmp40" |
| 3/12/2017 00:00:00 | 54.0 | 79.0 | 0.7 | 2.8 | 217 | 0.00 | 0 | 5.2 | 59.9 | 10.4 | 61.7 | 12.0 | 62.2 | 27.4 | 63.1 | 27.3 | 64.2 |
| 3/12/2017 01:00:00 | 54.7 | 70.0 | 1.7 | 3.5 | 341 | 0.00 | 0 | 4.6 | 59.9 | 10.4 | 61.3 | 12.1 | 62.1 | 27.4 | 63.1 | 27.4 | 64.2 |
| 3/12/2017 02:00:00 | 56.3 | 60.0 | 4.7 | 9.2 | 348 | 0.00 | 0 | 4.5 | 59.7 | 10.4 | 61.3 | 12.1 | 62.1 | 27.6 | 63.1 | 27.4 | 64.4 |
| 3/12/2017 03:00:00 | 55.0 | 64.0 | 2.9 | 7.3 | 9 | 0.00 | 0 | 4.5 | 59.9 | 10.0 | 61.2 | 11.8 | 62.1 | 27.4 | 63.1 | 27.3 | 64.2 |
| 3/12/2017 04:00:00 | 54.1 | 65.0 | 4.9 | 10.8 | 360 | 0.00 | 0 | 4.6 | 59.4 | 10.0 | 61.2 | 11.9 | 61.7 | 27.4 | 63.1 | 27.5 | 64.2 |
| 3/12/2017 05:00:00 | 53.1 | 70.0 | 3.7 | 10.6 | 26 | 0.00 | 0 | 4.7 | 59.0 | 10.0 | 60.8 | 11.9 | 61.7 | 27.4 | 63.1 | 27.3 | 64.2 |
| 3/12/2017 06:00:00 | 50.4 | 83.0 | 4.4 | 11.5 | 29 | 0.00 | 0 | 4.3 | 59.4 | 10.0 | 60.8 | 11.8 | 61.3 | 27.6 | 63.1 | 27.4 | 64.2 |
| 3/12/2017 07:00:00 | 50.2 | 87.0 | 2.8 | 8.3 | 26 | 0.00 | 9 | 4.7 | 58.8 | 10.1 | 60.4 | 11.9 | 61.3 | 27.6 | 63.1 | 27.4 | 64.2 |
| 3/12/2017 08:00:00 | 50.5 | 92.0 | 3.1 | 7.7 | 38 | 0.01 | 61 | 4.7 | 59.4 | 10.1 | 60.4 | 11.9 | 61.3 | 27.6 | 63.1 | 27.5 | 64.4 |
| 3/12/2017 09:00:00 | 51.4 | 87.0 | 4.5 | 10.7 | 25 | 0.01 | 146 | 4.6 | 59.0 | 10.1 | 60.4 | 12.0 | 61.2 | 27.4 | 63.1 | 27.4 | 64.2 |
| 3/12/2017 10:00:00 | 53.2 | 80.0 | 5.7 | 12.7 | 35 | 0.00 | 178 | 4.5 | 59.7 | 10.2 | 60.4 | 11.9 | 61.2 | 27.6 | 63.1 | 27.4 | 64.2 |
| 3/12/2017 11:00:00 | 55.8 | 76.0 | 6.9 | 13.2 | 47 | 0.00 | 328 | 4.6 | 60.3 | 10.4 | 60.4 | 11.9 | 61.2 | 27.5 | 63.0 | 27.3 | 64.2 |
| 3/12/2017 12:00:00 | 58.6 | 68.0 | 7.1 | 15.3 | 46 | 0.00 | 604 | 4.8 | 61.3 | 10.1 | 60.8 | 12.0 | 61.2 | 27.7 | 63.0 | 27.4 | 64.2 |
| 3/12/2017 13:00:00 | 60.1 | 64.0 | 6.9 | 12.7 | 72 | 0.00 | 558 | 5.0 | 63.0 | 9.9 | 61.3 | 12.0 | 61.2 | 27.8 | 63.0 | 27.0 | 64.2 |
| 3/12/2017 14:00:00 | 61.2 | 64.0 | 4.8 | 10.6 | 49 | 0.00 | 328 | 5.0 | 63.1 | 10.1 | 62.1 | 12.0 | 61.3 | 27.7 | 63.0 | 27.1 | 64.2 |
| 3/12/2017 15:00:00 | 58.3 | 72.0 | 5.5 | 11.2 | 36 | 0.00 | 188 | 4.7 | 63.0 | 10.2 | 62.2 | 11.8 | 61.7 | 27.4 | 63.0 | 27.1 | 64.2 |
| 3/12/2017 16:00:00 | 56.1 | 74.0 | 6.6 | 13.1 | 37 | 0.00 | 103 | 4.7 | 62.1 | 9.8 | 62.1 | 11.8 | 61.7 | 27.4 | 63.0 | 27.1 | 64.2 |
| 3/12/2017 17:00:00 | 53.4 | 79.0 | 6.0 | 14.5 | 35 | 0.00 | 53 | 4.5 | 61.7 | 10.3 | 62.1 | 11.8 | 62.1 | 27.7 | 63.0 | 27.1 | 64.2 |
| 3/12/2017 18:00:00 | 51.6 | 79.0 | 7.3 | 15.4 | 42 | 0.00 | 8 | 4.8 | 60.4 | 9.9 | 61.3 | 11.7 | 61.7 | 27.4 | 63.0 | 27.1 | 64.2 |
| 3/12/2017 19:00:00 | 51.1 | 79.0 | 6.7 | 14.0 | 39 | 0.00 | 0 | 4.6 | 59.9 | 9.9 | 61.2 | 11.8 | 61.7 | 27.4 | 63.0 | 27.0 | 64.4 |
| 3/12/2017 20:00:00 | 50.2 | 80.0 | 7.8 | 15.8 | 47 | 0.00 | 0 | 4.5 | 59.4 | 9.9 | 60.8 | 11.6 | 61.7 | 27.4 | 63.0 | 27.4 | 64.2 |
| 3/12/2017 21:00:00 | 49.6 | 81.0 | 7.7 | 13.9 | 54 | 0.00 | 0 | 4.7 | 59.0 | 9.9 | 60.4 | 11.6 | 61.7 | 27.4 | 63.0 | 27.1 | 64.2 |
| 3/12/2017 22:00:00 | 49.1 | 82.0 | 7.5 | 13.3 | 54 | 0.00 | 0 | 4.5 | 59.0 | 9.9 | 60.4 | 11.6 | 61.3 | 27.4 | 63.0 | 27.1 | 64.4 |
| 3/12/2017 23:00:00 | 48.4 | 79.0 | 9.1 | 16.1 | 63 | 0.00 | 0 | 4.3 | 58.8 | 9.9 | 60.3 | 11.8 | 61.2 | 27.4 | 63.0 | 27.0 | 64.4 |
Temperature in degrees Fahrenheit, wind speed in miles per hour, precipitation in inches, and pressure in inches of mercury.